Time;durP1;ratioP1;P1;durP2;ratioP2;P2;SDS_P1;SDS_P2;PMS_P1;PMS_P2;Temp;Humidity;BMP_temperature;BMP_pressure;BME280_temperature;BME280_humidity;BME280_pressure;Samples;Min_cycle;Max_cycle;Signal;HPM_P1;HPM_P2
2023/11/17 00:00:03;;;;;;;16.63;10.20;;;;;;;-145.87;100.00;54973.53;2042581;29;20028;-57
2023/11/17 00:01:10;;;;;;;15.70;10.15;;;;;;;-145.87;100.00;54973.53;2033987;29;20056;-56
2023/11/17 00:02:11;;;;;;;18.08;9.85;;;;;;;-145.87;100.00;54973.53;2026393;29;20056;-57
2023/11/17 00:03:12;;;;;;;19.25;11.10;;;;;;;-145.87;100.00;54973.53;2034154;29;20044;-57
2023/11/17 00:04:14;;;;;;;14.90;9.27;;;;;;;-145.87;100.00;54973.53;2042546;29;20411;-57
2023/11/17 00:05:15;;;;;;;16.30;9.73;;;;;;;-145.87;100.00;54973.53;2042714;29;20090;-56
2023/11/17 00:06:19;;;;;;;15.65;9.80;;;;;;;-145.87;100.00;54973.53;2042768;29;20043;-57
2023/11/17 00:07:20;;;;;;;17.17;9.40;;;;;;;-145.87;100.00;54973.53;2041738;29;20055;-56
2023/11/17 00:08:22;;;;;;;15.88;9.95;;;;;;;-145.87;100.00;54973.53;2042466;29;20039;-57
2023/11/17 00:09:23;;;;;;;16.05;9.07;;;;;;;-145.87;100.00;54973.53;2042537;29;20043;-56
2023/11/17 00:10:24;;;;;;;18.65;10.48;;;;;;;-145.87;100.00;54973.53;2042483;29;20047;-56
2023/11/17 00:11:25;;;;;;;14.40;9.02;;;;;;;-145.87;100.00;54973.53;2034320;29;20444;-56
2023/11/17 00:12:26;;;;;;;15.60;9.65;;;;;;;-145.87;100.00;54973.53;2033966;29;20055;-56
2023/11/17 00:13:27;;;;;;;16.25;8.52;;;;;;;-145.87;100.00;54973.53;2042197;29;20066;-56
2023/11/17 00:14:28;;;;;;;14.85;9.52;;;;;;;-145.87;100.00;54973.53;2041958;29;20472;-56
2023/11/17 00:15:30;;;;;;;16.63;9.70;;;;;;;-145.87;100.00;54973.53;2042164;29;20046;-56
2023/11/17 00:16:31;;;;;;;14.55;8.43;;;;;;;-145.87;100.00;54973.53;2042130;29;20048;-57
2023/11/17 00:17:33;;;;;;;15.07;7.97;;;;;;;-145.87;100.00;54973.53;2042801;29;20062;-57
2023/11/17 00:18:35;;;;;;;15.55;8.55;;;;;;;-145.87;100.00;54973.53;2043321;29;20043;-57
2023/11/17 00:19:36;;;;;;;20.52;10.85;;;;;;;-145.87;100.00;54973.53;2043314;29;20400;-57
2023/11/17 00:20:37;;;;;;;17.38;10.13;;;;;;;-145.87;100.00;54973.53;2042665;29;20042;-57
2023/11/17 00:21:38;;;;;;;17.02;8.95;;;;;;;-145.87;100.00;54973.53;2043635;29;20031;-57
2023/11/17 00:22:39;;;;;;;17.35;7.95;;;;;;;-145.87;100.00;54973.53;2043529;29;20051;-56
2023/11/17 00:23:41;;;;;;;16.83;8.98;;;;;;;-145.87;100.00;54973.53;2043208;29;20052;-56
2023/11/17 00:24:43;;;;;;;15.57;9.05;;;;;;;-145.87;100.00;54973.53;2042445;29;20058;-57
2023/11/17 00:25:44;;;;;;;18.63;9.63;;;;;;;-145.87;100.00;54973.53;2042372;29;20400;-57
2023/11/17 00:26:45;;;;;;;11.52;7.22;;;;;;;-145.87;100.00;54973.53;2042328;29;20054;-57
2023/11/17 00:27:47;;;;;;;16.10;9.23;;;;;;;-145.87;100.00;54973.53;2042317;29;20044;-56
2023/11/17 00:28:48;;;;;;;12.82;7.75;;;;;;;-145.87;100.00;54973.53;2042420;29;20388;-56
2023/11/17 00:29:50;;;;;;;13.73;7.95;;;;;;;-145.87;100.00;54973.53;2042590;29;20044;-56
2023/11/17 00:30:53;;;;;;;15.43;9.27;;;;;;;-145.87;100.00;54973.53;2033660;29;20048;-56
2023/11/17 00:31:55;;;;;;;8.10;5.25;;;;;;;-145.87;100.00;54973.53;2034190;29;20040;-57
2023/11/17 00:32:56;;;;;;;9.73;6.00;;;;;;;-145.87;100.00;54973.53;2042561;29;20491;-58
2023/11/17 00:33:57;;;;;;;9.48;6.40;;;;;;;-145.87;100.00;54973.53;2042424;29;20048;-58
2023/11/17 00:34:59;;;;;;;9.38;6.10;;;;;;;-145.87;100.00;54973.53;2034026;29;20048;-58
2023/11/17 00:36:02;;;;;;;6.28;4.30;;;;;;;-145.87;100.00;54973.53;2033864;29;20047;-57
2023/11/17 00:37:07;;;;;;;4.22;2.45;;;;;;;-145.87;100.00;54973.53;2034009;29;20040;-57
2023/11/17 00:38:10;;;;;;;2.65;1.90;;;;;;;-145.87;100.00;54973.53;2033957;29;20047;-57
2023/11/17 00:39:12;;;;;;;1.90;1.20;;;;;;;-145.87;100.00;54973.53;2033397;29;20048;-58
2023/11/17 00:40:13;;;;;;;2.50;1.35;;;;;;;-145.87;100.00;54973.53;2042243;29;20051;-58
2023/11/17 00:41:14;;;;;;;2.22;1.15;;;;;;;-145.87;100.00;54973.53;2042227;29;20048;-60
2023/11/17 00:42:16;;;;;;;0.98;0.57;;;;;;;-145.87;100.00;54973.53;2042510;29;20051;-59
2023/11/17 00:43:18;;;;;;;1.08;0.70;;;;;;;-145.87;100.00;54973.53;2034098;29;20516;-60
2023/11/17 00:44:19;;;;;;;0.98;0.68;;;;;;;-145.87;100.00;54973.53;2034261;29;20055;-60
2023/11/17 00:45:20;;;;;;;1.05;0.60;;;;;;;-145.87;100.00;54973.53;2042189;29;20070;-59
2023/11/17 00:46:21;;;;;;;0.30;0.25;;;;;;;-145.87;100.00;54973.53;2042353;29;20476;-59
2023/11/17 00:47:23;;;;;;;0.60;0.50;;;;;;;-145.87;100.00;54973.53;2042292;29;20047;-58
2023/11/17 00:48:25;;;;;;;0.57;0.45;;;;;;;-145.87;100.00;54973.53;2033728;29;20048;-60
2023/11/17 00:49:26;;;;;;;0.73;0.40;;;;;;;-145.87;100.00;54973.53;2034011;29;20052;-59
2023/11/17 00:50:29;;;;;;;0.93;0.60;;;;;;;-145.87;100.00;54973.53;2033756;29;20048;-59
2023/11/17 00:51:30;;;;;;;1.23;0.90;;;;;;;-145.87;100.00;54973.53;2033442;29;20056;-59
2023/11/17 00:52:32;;;;;;;1.38;0.70;;;;;;;-145.87;100.00;54973.53;2033921;29;20050;-60
2023/11/17 00:53:34;;;;;;;0.70;0.57;;;;;;;-145.87;100.00;54973.53;2033674;29;20040;-60
2023/11/17 00:54:42;;;;;;;0.57;0.52;;;;;;;-145.87;100.00;54973.53;2033701;29;20051;-60
2023/11/17 00:55:46;;;;;;;1.02;0.73;;;;;;;-145.87;100.00;54973.53;2042006;29;20448;-58
2023/11/17 00:56:47;;;;;;;1.75;1.08;;;;;;;-145.87;100.00;54973.53;2042535;29;20043;-58
2023/11/17 00:57:48;;;;;;;1.75;1.05;;;;;;;-145.87;100.00;54973.53;2033744;29;20044;-59
2023/11/17 00:58:49;;;;;;;1.63;1.10;;;;;;;-145.87;100.00;54973.53;2034114;29;20386;-59
2023/11/17 00:59:50;;;;;;;2.15;1.30;;;;;;;-145.87;100.00;54973.53;2042265;29;20039;-59
2023/11/17 01:00:51;;;;;;;2.67;1.40;;;;;;;-145.87;100.00;54973.53;2033399;29;20055;-60
2023/11/17 01:01:52;;;;;;;3.50;1.27;;;;;;;-145.87;100.00;54973.53;2034066;29;20071;-59
2023/11/17 01:02:53;;;;;;;2.28;1.02;;;;;;;-145.87;100.00;54973.53;2033849;29;20051;-60
2023/11/17 01:03:55;;;;;;;2.25;1.00;;;;;;;-145.87;100.00;54973.53;2033696;29;20040;-59
2023/11/17 01:04:56;;;;;;;2.53;1.40;;;;;;;-145.87;100.00;54973.53;2042129;29;20048;-59
2023/11/17 01:05:57;;;;;;;1.67;1.23;;;;;;;-145.87;100.00;54973.53;2042391;29;20388;-59
2023/11/17 01:06:58;;;;;;;2.83;1.40;;;;;;;-145.87;100.00;54973.53;2041187;29;20036;-58
2023/11/17 01:08:01;;;;;;;1.83;1.00;;;;;;;-145.87;100.00;54973.53;2042212;29;20491;-58
2023/11/17 01:09:04;;;;;;;1.83;0.98;;;;;;;-145.87;100.00;54973.53;2033484;29;20055;-58
2023/11/17 01:10:06;;;;;;;2.15;1.17;;;;;;;-145.87;100.00;54973.53;2033866;29;20056;-58
2023/11/17 01:11:09;;;;;;;1.67;1.20;;;;;;;-145.87;100.00;54973.53;2033416;29;20071;-58
2023/11/17 01:12:10;;;;;;;1.95;1.10;;;;;;;-145.87;100.00;54973.53;2033744;29;20052;-58
2023/11/17 01:13:11;;;;;;;2.65;1.48;;;;;;;-145.87;100.00;54973.53;2041530;29;20058;-58
2023/11/17 01:14:12;;;;;;;1.92;1.23;;;;;;;-145.87;100.00;54973.53;2041411;29;20090;-58
2023/11/17 01:15:13;;;;;;;2.83;1.70;;;;;;;-145.87;100.00;54973.53;2041611;29;20460;-61
2023/11/17 01:16:16;;;;;;;2.33;1.25;;;;;;;-145.87;100.00;54973.53;2033473;29;20508;-58
2023/11/17 01:17:17;;;;;;;2.60;1.20;;;;;;;-145.87;100.00;54973.53;2033824;29;20055;-58
2023/11/17 01:18:18;;;;;;;2.22;1.48;;;;;;;-145.87;100.00;54973.53;2042134;29;20412;-58
2023/11/17 01:19:20;;;;;;;1.88;1.40;;;;;;;-145.87;100.00;54973.53;2025938;29;20513;-58
2023/11/17 01:20:21;;;;;;;2.05;1.52;;;;;;;-145.87;100.00;54973.53;2025961;29;20064;-58
2023/11/17 01:21:24;;;;;;;2.20;1.50;;;;;;;-145.87;100.00;54973.53;2041624;29;20053;-58
2023/11/17 01:22:26;;;;;;;2.83;1.50;;;;;;;-145.87;100.00;54973.53;2041492;29;20055;-58
2023/11/17 01:23:28;;;;;;;2.15;1.50;;;;;;;-145.87;100.00;54973.53;2041915;29;20412;-57
2023/11/17 01:24:29;;;;;;;2.15;1.35;;;;;;;-145.87;100.00;54973.53;2042085;29;20116;-58
2023/11/17 01:25:32;;;;;;;2.45;1.60;;;;;;;-145.87;100.00;54973.53;2042036;29;20047;-57
2023/11/17 01:26:33;;;;;;;2.78;1.70;;;;;;;-145.87;100.00;54973.53;2042057;29;20500;-57
2023/11/17 01:27:34;;;;;;;2.97;1.48;;;;;;;-145.87;100.00;54973.53;2041964;29;20102;-57
2023/11/17 01:28:35;;;;;;;2.13;1.30;;;;;;;-145.87;100.00;54973.53;2042111;29;20027;-57
2023/11/17 01:29:37;;;;;;;2.38;1.60;;;;;;;-145.87;100.00;54973.53;2041916;29;20039;-57
2023/11/17 01:30:38;;;;;;;3.05;1.30;;;;;;;-145.87;100.00;54973.53;2033037;29;20052;-57
2023/11/17 01:31:39;;;;;;;2.40;1.40;;;;;;;-145.87;100.00;54973.53;2032398;29;20457;-58
2023/11/17 01:32:40;;;;;;;2.45;1.55;;;;;;;-145.87;100.00;54973.53;2041846;29;20035;-57
2023/11/17 01:33:42;;;;;;;1.50;1.00;;;;;;;-145.87;100.00;54973.53;2041645;29;20052;-58
2023/11/17 01:34:43;;;;;;;1.80;1.13;;;;;;;-145.87;100.00;54973.53;2033385;29;20567;-58
2023/11/17 01:35:44;;;;;;;1.90;1.08;;;;;;;-145.87;100.00;54973.53;2033547;29;20040;-58
2023/11/17 01:36:46;;;;;;;1.73;1.17;;;;;;;-145.87;100.00;54973.53;2041873;29;20043;-58
2023/11/17 01:37:47;;;;;;;2.05;1.30;;;;;;;-145.87;100.00;54973.53;2041844;29;20043;-58
2023/11/17 01:38:48;;;;;;;2.60;1.48;;;;;;;-145.87;100.00;54973.53;2033533;29;20487;-58
2023/11/17 01:39:49;;;;;;;1.50;1.10;;;;;;;-145.87;100.00;54973.53;2032798;29;20067;-58
2023/11/17 01:40:50;;;;;;;2.30;1.33;;;;;;;-145.87;100.00;54973.53;2033539;29;20055;-57
2023/11/17 01:41:52;;;;;;;2.38;1.40;;;;;;;-145.87;100.00;54973.53;2033970;29;20139;-58
2023/11/17 01:42:53;;;;;;;1.65;1.20;;;;;;;-145.87;100.00;54973.53;2033995;29;20056;-58
2023/11/17 01:43:55;;;;;;;1.20;0.70;;;;;;;-145.87;100.00;54973.53;2034031;29;20052;-58
2023/11/17 01:44:56;;;;;;;1.92;0.70;;;;;;;-145.87;100.00;54973.53;2033439;29;20451;-58
2023/11/17 01:45:57;;;;;;;1.02;0.50;;;;;;;-145.87;100.00;54973.53;2032711;29;20051;-57
2023/11/17 01:46:58;;;;;;;1.45;0.80;;;;;;;-145.87;100.00;54973.53;2034171;29;20047;-57
2023/11/17 01:47:59;;;;;;;1.52;0.73;;;;;;;-145.87;100.00;54973.53;2034032;29;20051;-58
2023/11/17 01:49:01;;;;;;;2.20;0.50;;;;;;;-145.87;100.00;54973.53;2033303;29;20044;-58
2023/11/17 01:50:02;;;;;;;0.80;0.50;;;;;;;-145.87;100.00;54973.53;2033381;29;20052;-58
2023/11/17 01:51:04;;;;;;;0.98;0.70;;;;;;;-145.87;100.00;54973.53;2033555;29;20496;-58
2023/11/17 01:52:06;;;;;;;1.65;0.80;;;;;;;-145.87;100.00;54973.53;2033134;29;20063;-58
2023/11/17 01:53:07;;;;;;;1.23;0.80;;;;;;;-145.87;100.00;54973.53;2033923;29;20063;-58
2023/11/17 01:54:12;;;;;;;0.77;0.50;;;;;;;-145.87;100.00;54973.53;2033925;29;20039;-59
2023/11/17 01:55:15;;;;;;;1.08;0.60;;;;;;;-145.87;100.00;54973.53;2033940;29;20040;-59
2023/11/17 01:56:16;;;;;;;1.30;0.80;;;;;;;-145.87;100.00;54973.53;2017848;29;20536;-59
2023/11/17 01:57:17;;;;;;;1.40;0.90;;;;;;;-145.87;100.00;54973.53;2018279;29;20478;-59
2023/11/17 01:58:19;;;;;;;4.38;1.02;;;;;;;-145.87;100.00;54973.53;2024935;29;20057;-59
2023/11/17 01:59:21;;;;;;;1.05;0.65;;;;;;;-145.87;100.00;54973.53;2033455;29;20048;-59
2023/11/17 02:00:22;;;;;;;1.25;0.77;;;;;;;-145.87;100.00;54973.53;2040930;29;20416;-59
2023/11/17 02:01:27;;;;;;;0.68;0.52;;;;;;;-145.87;100.00;54973.53;2032449;29;20055;-59
2023/11/17 02:02:28;;;;;;;2.13;0.60;;;;;;;-145.87;100.00;54973.53;2033009;29;20044;-59
2023/11/17 02:03:29;;;;;;;0.63;0.57;;;;;;;-145.87;100.00;54973.53;2033172;29;20420;-59
2023/11/17 02:04:32;;;;;;;1.85;1.00;;;;;;;-145.87;100.00;54973.53;2033478;29;20040;-59
2023/11/17 02:05:34;;;;;;;1.90;0.65;;;;;;;-145.87;100.00;54973.53;2025520;29;20056;-59
2023/11/17 02:06:45;;;;;;;1.20;0.82;;;;;;;-145.87;100.00;54973.53;2018020;29;20049;-59
2023/11/17 02:08:04;;;;;;;1.63;0.90;;;;;;;-145.87;100.00;54973.53;2027463;29;20040;-59
2023/11/17 02:09:15;;;;;;;;;;;;;;;-145.87;100.00;54973.53;2026191;29;20396;-59
2023/11/17 02:10:28;;;;;;;1.05;0.60;;;;;;;-145.87;100.00;54973.53;2022568;29;19919;-60
2023/11/17 02:11:35;;;;;;;1.83;0.70;;;;;;;-145.87;100.00;54973.53;2027329;29;20427;-60
2023/11/17 02:12:48;;;;;;;1.13;0.60;;;;;;;-145.87;100.00;54973.53;2033551;29;20047;-59
2023/11/17 02:14:19;;;;;;;1.00;0.70;;;;;;;-145.87;100.00;54973.53;2041529;29;20043;-60
2023/11/17 02:15:23;;;;;;;1.35;0.80;;;;;;;-145.87;100.00;54973.53;2024919;29;20059;-60
2023/11/17 02:16:24;;;;;;;1.10;0.57;;;;;;;-145.87;100.00;54973.53;2028628;29;20044;-60
2023/11/17 02:17:28;;;;;;;1.02;0.75;;;;;;;-145.87;100.00;54973.53;2025649;29;20508;-60
2023/11/17 02:18:30;;;;;;;1.63;1.00;;;;;;;-145.87;100.00;54973.53;2017989;29;20048;-61
2023/11/17 02:19:35;;;;;;;1.35;0.75;;;;;;;-145.87;100.00;54973.53;2010595;29;20049;-60
2023/11/17 02:20:36;;;;;;;1.30;0.80;;;;;;;-145.87;100.00;54973.53;2018620;29;20037;-60
2023/11/17 02:21:38;;;;;;;1.35;0.80;;;;;;;-145.87;100.00;54973.53;2017704;29;20049;-60
2023/11/17 02:22:44;;;;;;;1.73;0.88;;;;;;;-145.87;100.00;54973.53;2018182;29;20398;-61
2023/11/17 02:23:46;;;;;;;3.30;0.98;;;;;;;-145.87;100.00;54973.53;2026456;29;20110;-60
2023/11/17 02:25:01;;;;;;;1.27;0.80;;;;;;;-145.87;100.00;54973.53;2025168;29;20072;-61
2023/11/17 02:26:25;;;;;;;1.27;0.80;;;;;;;-145.87;100.00;54973.53;2021628;29;20044;-61
2023/11/17 02:27:43;;;;;;;1.73;0.90;;;;;;;-145.87;100.00;54973.53;2020750;29;20489;-60
2023/11/17 02:29:07;;;;;;;1.05;0.70;;;;;;;-145.87;100.00;54973.53;2022691;29;20037;-62
2023/11/17 02:30:08;;;;;;;2.13;1.00;;;;;;;-145.87;100.00;54973.53;2029481;29;20047;-60
2023/11/17 02:31:18;;;;;;;1.67;0.90;;;;;;;-145.87;100.00;54973.53;2009569;29;20061;-61
2023/11/17 02:32:24;;;;;;;1.58;0.93;;;;;;;-145.87;100.00;54973.53;2005548;29;20050;-60
2023/11/17 02:33:25;;;;;;;1.48;1.10;;;;;;;-145.87;100.00;54973.53;2011824;29;20049;-61
2023/11/17 02:34:26;;;;;;;2.65;0.88;;;;;;;-145.87;100.00;54973.53;2018621;29;20060;-61
2023/11/17 02:35:28;;;;;;;1.35;0.80;;;;;;;-145.87;100.00;54973.53;2025612;29;20527;-60
2023/11/17 02:36:32;;;;;;;1.48;0.98;;;;;;;-145.87;100.00;54973.53;2025505;29;20045;-60
2023/11/17 02:37:33;;;;;;;3.53;1.25;;;;;;;-145.87;100.00;54973.53;2033784;29;20044;-60
2023/11/17 02:38:35;;;;;;;1.70;1.02;;;;;;;-145.87;100.00;54973.53;2041136;29;20051;-60
2023/11/17 02:39:39;;;;;;;1.50;1.20;;;;;;;-145.87;100.00;54973.53;2025189;29;20369;-61
2023/11/17 02:40:45;;;;;;;1.67;0.90;;;;;;;-145.87;100.00;54973.53;2025368;29;20052;-62
2023/11/17 02:41:56;;;;;;;1.83;1.10;;;;;;;-145.87;100.00;54973.53;2033898;29;20044;-61
2023/11/17 02:42:59;;;;;;;1.33;0.85;;;;;;;-145.87;100.00;54973.53;2034087;29;20051;-61
2023/11/17 02:44:02;;;;;;;1.73;1.00;;;;;;;-145.87;100.00;54973.53;2034559;29;20414;-61
2023/11/17 02:45:09;;;;;;;1.27;0.95;;;;;;;-145.87;100.00;54973.53;2035218;29;20043;-61
2023/11/17 02:46:12;;;;;;;1.15;0.70;;;;;;;-145.87;100.00;54973.53;2035501;29;20370;-61
2023/11/17 02:47:19;;;;;;;1.55;0.70;;;;;;;-145.87;100.00;54973.53;2035234;29;20040;-61
2023/11/17 02:48:22;;;;;;;1.90;1.30;;;;;;;-145.87;100.00;54973.53;2035464;29;20106;-61
2023/11/17 02:49:29;;;;;;;2.25;1.30;;;;;;;-145.87;100.00;54973.53;2034861;29;20052;-61
2023/11/17 02:50:38;;;;;;;1.92;1.10;;;;;;;-145.87;100.00;54973.53;2034878;29;20036;-61
2023/11/17 02:51:44;;;;;;;2.92;1.30;;;;;;;-145.87;100.00;54973.53;2035535;29;20044;-61
2023/11/17 02:53:06;;;;;;;2.15;1.05;;;;;;;-145.87;100.00;54973.53;2035586;29;20042;-61
2023/11/17 02:54:08;;;;;;;2.00;1.17;;;;;;;-145.87;100.00;54973.53;2026959;29;20506;-60
2023/11/17 02:55:10;;;;;;;1.67;1.25;;;;;;;-145.87;100.00;54973.53;2022187;29;20048;-61
2023/11/17 02:56:11;;;;;;;2.58;1.33;;;;;;;-145.87;100.00;54973.53;2019316;29;20049;-61
2023/11/17 02:57:12;;;;;;;2.90;1.70;;;;;;;-145.87;100.00;54973.53;2019508;29;20033;-61
2023/11/17 02:58:15;;;;;;;2.85;1.23;;;;;;;-145.87;100.00;54973.53;2019477;29;20049;-61
2023/11/17 02:59:18;;;;;;;2.60;1.50;;;;;;;-145.87;100.00;54973.53;2019087;29;20064;-60
2023/11/17 03:00:22;;;;;;;1.90;1.38;;;;;;;-145.87;100.00;54973.53;2027639;29;20040;-60
2023/11/17 03:01:24;;;;;;;1.67;1.20;;;;;;;-145.87;100.00;54973.53;2034764;29;20055;-60
2023/11/17 03:02:26;;;;;;;2.08;1.10;;;;;;;-145.87;100.00;54973.53;2019807;29;20401;-60
2023/11/17 03:03:27;;;;;;;1.70;1.20;;;;;;;-145.87;100.00;54973.53;2019168;29;20490;-60
2023/11/17 03:04:28;;;;;;;1.88;1.17;;;;;;;-145.87;100.00;54973.53;2026785;29;20045;-60
2023/11/17 03:05:29;;;;;;;2.65;1.40;;;;;;;-145.87;100.00;54973.53;2035132;29;20036;-60
2023/11/17 03:06:31;;;;;;;2.55;1.67;;;;;;;-145.87;100.00;54973.53;2035203;29;20048;-59
2023/11/17 03:07:34;;;;;;;1.48;1.17;;;;;;;-145.87;100.00;54973.53;2035284;29;20393;-60
2023/11/17 03:08:35;;;;;;;2.15;1.08;;;;;;;-145.87;100.00;54973.53;2035078;29;20047;-60
2023/11/17 03:09:36;;;;;;;1.40;0.77;;;;;;;-145.87;100.00;54973.53;2035217;29;20044;-60
2023/11/17 03:10:37;;;;;;;1.95;1.27;;;;;;;-145.87;100.00;54973.53;2035130;29;20047;-61
2023/11/17 03:11:41;;;;;;;1.77;1.05;;;;;;;-145.87;100.00;54973.53;2035347;29;20405;-60
2023/11/17 03:12:42;;;;;;;1.90;1.10;;;;;;;-145.87;100.00;54973.53;2035361;29;20040;-60
2023/11/17 03:13:44;;;;;;;1.30;1.05;;;;;;;-145.87;100.00;54973.53;2034601;29;20051;-61
2023/11/17 03:14:46;;;;;;;1.98;1.30;;;;;;;-145.87;100.00;54973.53;2027107;29;20489;-60
2023/11/17 03:15:47;;;;;;;1.75;1.27;;;;;;;-145.87;100.00;54973.53;2034341;29;20118;-60
2023/11/17 03:16:49;;;;;;;1.15;0.65;;;;;;;-145.87;100.00;54973.53;2034990;29;20055;-60
2023/11/17 03:17:51;;;;;;;1.85;1.15;;;;;;;-145.87;100.00;54973.53;2018524;29;20053;-61
2023/11/17 03:18:52;;;;;;;1.63;1.13;;;;;;;-145.87;100.00;54973.53;2019358;29;20064;-60
2023/11/17 03:19:54;;;;;;;1.55;1.02;;;;;;;-145.87;100.00;54973.53;2034904;29;20055;-60
2023/11/17 03:20:56;;;;;;;1.30;0.77;;;;;;;-145.87;100.00;54973.53;2035271;29;20055;-60
2023/11/17 03:21:57;;;;;;;1.65;0.80;;;;;;;-145.87;100.00;54973.53;2033904;29;20079;-60
2023/11/17 03:23:00;;;;;;;2.08;0.90;;;;;;;-145.87;100.00;54973.53;2026822;29;20501;-59
2023/11/17 03:24:01;;;;;;;1.33;0.95;;;;;;;-145.87;100.00;54973.53;2034322;29;20055;-58
2023/11/17 03:25:02;;;;;;;1.10;0.80;;;;;;;-145.87;100.00;54973.53;2034933;29;20433;-59
2023/11/17 03:26:04;;;;;;;1.52;1.15;;;;;;;-145.87;100.00;54973.53;2034336;29;20059;-58
2023/11/17 03:27:05;;;;;;;1.63;1.05;;;;;;;-145.87;100.00;54973.53;2034592;29;20051;-58
2023/11/17 03:28:13;;;;;;;1.20;0.80;;;;;;;-145.87;100.00;54973.53;2034952;29;20425;-58
2023/11/17 03:29:14;;;;;;;1.60;0.98;;;;;;;-145.87;100.00;54973.53;2034829;29;20048;-58
2023/11/17 03:30:17;;;;;;;1.75;0.98;;;;;;;-145.87;100.00;54973.53;2034763;29;20044;-58
2023/11/17 03:31:19;;;;;;;1.92;1.05;;;;;;;-145.87;100.00;54973.53;2034935;29;20409;-58
2023/11/17 03:32:20;;;;;;;2.67;0.88;;;;;;;-145.87;100.00;54973.53;2034789;29;20047;-58
2023/11/17 03:33:22;;;;;;;2.75;1.20;;;;;;;-145.87;100.00;54973.53;2034952;29;20055;-58
2023/11/17 03:34:29;;;;;;;3.60;1.25;;;;;;;-145.87;100.00;54973.53;2034472;29;20129;-58
2023/11/17 03:35:30;;;;;;;1.50;0.95;;;;;;;-145.87;100.00;54973.53;2034209;29;20464;-59
2023/11/17 03:36:31;;;;;;;2.47;1.50;;;;;;;-145.87;100.00;54973.53;2034521;29;20055;-59
2023/11/17 03:37:32;;;;;;;2.05;1.23;;;;;;;-145.87;100.00;54973.53;2034119;29;20038;-59
2023/11/17 03:38:33;;;;;;;1.55;1.17;;;;;;;-145.87;100.00;54973.53;2033952;29;20051;-59
2023/11/17 03:39:42;;;;;;;2.65;1.50;;;;;;;-145.87;100.00;54973.53;2033936;29;20056;-59
2023/11/17 03:40:46;;;;;;;3.05;1.13;;;;;;;-145.87;100.00;54973.53;2034771;29;20048;-59
2023/11/17 03:41:47;;;;;;;1.90;1.20;;;;;;;-145.87;100.00;54973.53;2034316;29;20386;-59
2023/11/17 03:42:49;;;;;;;2.13;1.30;;;;;;;-145.87;100.00;54973.53;2034195;29;20047;-59
2023/11/17 03:43:50;;;;;;;2.55;1.52;;;;;;;-145.87;100.00;54973.53;2026521;29;20432;-59
2023/11/17 03:44:57;;;;;;;1.85;1.20;;;;;;;-145.87;100.00;54973.53;2034441;29;20028;-59
2023/11/17 03:46:00;;;;;;;2.30;1.50;;;;;;;-145.87;100.00;54973.53;2027603;29;20104;-60
2023/11/17 03:47:01;;;;;;;2.63;1.70;;;;;;;-145.87;100.00;54973.53;2026742;29;20056;-59
2023/11/17 03:48:04;;;;;;;3.10;1.92;;;;;;;-145.87;100.00;54973.53;2034518;29;20052;-59
2023/11/17 03:49:07;;;;;;;2.05;1.30;;;;;;;-145.87;100.00;54973.53;2034351;29;20059;-58
2023/11/17 03:50:13;;;;;;;1.98;1.20;;;;;;;-145.87;100.00;54973.53;2034360;29;20055;-60
2023/11/17 03:51:14;;;;;;;2.92;1.50;;;;;;;-145.87;100.00;54973.53;2034859;29;20055;-60
2023/11/17 03:52:16;;;;;;;2.55;1.50;;;;;;;-145.87;100.00;54973.53;2034951;29;20047;-60
2023/11/17 03:53:17;;;;;;;2.65;1.50;;;;;;;-145.87;100.00;54973.53;2035043;29;20469;-60
2023/11/17 03:54:24;;;;;;;2.10;1.40;;;;;;;-145.87;100.00;54973.53;2034935;29;20048;-60
2023/11/17 03:55:25;;;;;;;3.75;1.50;;;;;;;-145.87;100.00;54973.53;2034956;29;20048;-60
2023/11/17 03:56:26;;;;;;;2.50;1.60;;;;;;;-145.87;100.00;54973.53;2034327;29;20047;-60
2023/11/17 03:57:28;;;;;;;2.25;1.40;;;;;;;-145.87;100.00;54973.53;2034515;29;20044;-60
2023/11/17 03:58:29;;;;;;;2.22;1.40;;;;;;;-145.87;100.00;54973.53;2041981;29;20043;-59
2023/11/17 03:59:30;;;;;;;2.55;1.45;;;;;;;-145.87;100.00;54973.53;2034772;29;20047;-60
2023/11/17 04:00:32;;;;;;;2.90;1.40;;;;;;;-145.87;100.00;54973.53;2034896;29;20044;-59
2023/11/17 04:01:33;;;;;;;2.80;1.80;;;;;;;-145.87;100.00;54973.53;2034896;29;20040;-59
2023/11/17 04:02:34;;;;;;;2.17;1.30;;;;;;;-145.87;100.00;54973.53;2034876;29;20380;-59
2023/11/17 04:03:36;;;;;;;2.20;1.50;;;;;;;-145.87;100.00;54973.53;2034949;29;20036;-60
2023/11/17 04:04:37;;;;;;;1.58;1.20;;;;;;;-145.87;100.00;54973.53;2034784;29;20047;-60
2023/11/17 04:05:38;;;;;;;2.45;1.65;;;;;;;-145.87;100.00;54973.53;2034904;29;20044;-59
2023/11/17 04:06:39;;;;;;;2.53;1.60;;;;;;;-145.87;100.00;54973.53;2034495;29;20071;-60
2023/11/17 04:07:48;;;;;;;2.58;1.40;;;;;;;-145.87;100.00;54973.53;2034372;29;20040;-59
2023/11/17 04:08:49;;;;;;;1.98;1.30;;;;;;;-145.87;100.00;54973.53;2034733;29;20051;-59
2023/11/17 04:09:50;;;;;;;2.25;1.20;;;;;;;-145.87;100.00;54973.53;2034865;29;20048;-59
2023/11/17 04:10:51;;;;;;;1.98;1.27;;;;;;;-145.87;100.00;54973.53;2034626;29;20040;-60
2023/11/17 04:11:52;;;;;;;2.63;1.48;;;;;;;-145.87;100.00;54973.53;2034730;29;20043;-59
2023/11/17 04:12:53;;;;;;;2.95;1.33;;;;;;;-145.87;100.00;54973.53;2034020;29;20050;-59
2023/11/17 04:13:54;;;;;;;2.42;1.10;;;;;;;-145.87;100.00;54973.53;2033834;29;20056;-59
2023/11/17 04:14:56;;;;;;;2.15;1.40;;;;;;;-145.87;100.00;54973.53;2034593;29;20452;-60
2023/11/17 04:15:59;;;;;;;1.92;1.30;;;;;;;-145.87;100.00;54973.53;2034751;29;20070;-59
2023/11/17 04:17:00;;;;;;;3.67;1.60;;;;;;;-145.87;100.00;54973.53;2034106;29;20056;-59
2023/11/17 04:18:01;;;;;;;2.08;1.15;;;;;;;-145.87;100.00;54973.53;2034705;29;20048;-60
2023/11/17 04:19:03;;;;;;;3.40;1.50;;;;;;;-145.87;100.00;54973.53;2034179;29;20048;-59
2023/11/17 04:20:05;;;;;;;1.90;1.13;;;;;;;-145.87;100.00;54973.53;2026166;29;20123;-59
2023/11/17 04:21:06;;;;;;;2.25;1.45;;;;;;;-145.87;100.00;54973.53;2026311;29;20037;-59
2023/11/17 04:22:09;;;;;;;2.10;1.05;;;;;;;-145.87;100.00;54973.53;2026442;29;20405;-59
2023/11/17 04:23:10;;;;;;;1.92;1.20;;;;;;;-145.87;100.00;54973.53;2034270;29;20051;-59
2023/11/17 04:24:12;;;;;;;3.13;1.63;;;;;;;-145.87;100.00;54973.53;2034552;29;20044;-59
2023/11/17 04:25:13;;;;;;;3.28;1.67;;;;;;;-145.87;100.00;54973.53;2033984;29;20103;-60
2023/11/17 04:26:14;;;;;;;2.00;1.20;;;;;;;-145.87;100.00;54973.53;2026246;29;20122;-59
2023/11/17 04:27:15;;;;;;;2.50;1.17;;;;;;;-145.87;100.00;54973.53;2034052;29;20048;-59
2023/11/17 04:28:17;;;;;;;2.67;1.45;;;;;;;-145.87;100.00;54973.53;2034617;29;20032;-59
2023/11/17 04:29:18;;;;;;;2.10;1.40;;;;;;;-145.87;100.00;54973.53;2034019;29;20074;-59
2023/11/17 04:30:19;;;;;;;4.20;1.35;;;;;;;-145.87;100.00;54973.53;2034677;29;20044;-59
2023/11/17 04:31:21;;;;;;;1.77;1.17;;;;;;;-145.87;100.00;54973.53;2034584;29;20043;-60
2023/11/17 04:32:22;;;;;;;2.25;1.15;;;;;;;-145.87;100.00;54973.53;2034529;29;20048;-59
2023/11/17 04:33:23;;;;;;;2.22;1.20;;;;;;;-145.87;100.00;54973.53;2034438;29;20043;-58
2023/11/17 04:34:24;;;;;;;1.88;1.10;;;;;;;-145.87;100.00;54973.53;2033971;29;20504;-60
2023/11/17 04:35:25;;;;;;;1.75;1.20;;;;;;;-145.87;100.00;54973.53;2034740;29;20044;-59
2023/11/17 04:36:27;;;;;;;1.90;1.08;;;;;;;-145.87;100.00;54973.53;2034201;29;20056;-59
2023/11/17 04:37:28;;;;;;;1.67;1.00;;;;;;;-145.87;100.00;54973.53;2034546;29;20059;-59
2023/11/17 04:38:30;;;;;;;2.40;1.23;;;;;;;-145.87;100.00;54973.53;2034412;29;20353;-59
2023/11/17 04:39:31;;;;;;;2.60;1.23;;;;;;;-145.87;100.00;54973.53;2034859;29;20051;-59
2023/11/17 04:40:33;;;;;;;1.77;1.05;;;;;;;-145.87;100.00;54973.53;2042454;29;20476;-59
2023/11/17 04:41:34;;;;;;;1.67;1.10;;;;;;;-145.87;100.00;54973.53;2041945;29;20046;-58
2023/11/17 04:42:38;;;;;;;1.77;1.00;;;;;;;-145.87;100.00;54973.53;2042406;29;20024;-59
2023/11/17 04:43:39;;;;;;;1.85;1.20;;;;;;;-145.87;100.00;54973.53;2042200;29;20404;-60
2023/11/17 04:44:40;;;;;;;1.75;1.05;;;;;;;-145.87;100.00;54973.53;2041952;29;20031;-59